This is the latest recevied weather packets stored in our database for station/object N5ZKK. If no packets are shown the sender has not sent any weather packets the latest 10 day(s).
| Time | Temp. | Humidity | Pressure | Rain* | Wind** | Luminosity | Snow |
|---|---|---|---|---|---|---|---|
| 1777191924 | 21.67° C | 98% | 1009.9 hPa | 0 mm | - | - | - |
| 1777184733 | 22.22° C | 93% | 1010.5 hPa | 0 mm | - | - | - |
| 1777182916 | 22.22° C | 93% | 1010.5 hPa | 0 mm | - | - | - |
| 1777179329 | 22.78° C | 90% | 1010.1 hPa | 0 mm | - | - | - |
| 1777177517 | 23.33° C | 88% | 1010.2 hPa | 0 mm | - | - | - |
| 1777175723 | 23.89° C | 86% | 1010.5 hPa | 0 mm | - | - | - |
| 1777175121 | 23.89° C | 85% | 1010.3 hPa | 0 mm | - | - | - |
| 1777174542 | 24.44° C | 84% | 1010.3 hPa | 0 mm | - | - | - |
| 1777172722 | 24.44° C | 84% | 1010.1 hPa | 0 mm | - | - | - |
| 1777170332 | 24.44° C | 82% | 1009.7 hPa | 0 mm | - | - | - |
| 1777169716 | 25° C | 81% | 1009.6 hPa | 0 mm | - | - | - |
| 1777168520 | 25.56° C | 78% | 1009.3 hPa | 0 mm | - | - | - |
| 1777161328 | 30° C | 59% | 1009 hPa | 0 mm | - | - | - |
| 1777158919 | 31.11° C | 61% | 1008.9 hPa | 0 mm | - | - | - |
| 1777157724 | 31.11° C | 60% | 1008.8 hPa | 0 mm | - | - | - |
| 1777155332 | 31.11° C | 59% | 1008.7 hPa | 0 mm | - | - | - |
| 1777154118 | 32.22° C | 57% | 1008.7 hPa | 0 mm | - | - | - |
| 1777153520 | 32.22° C | 57% | 1008.8 hPa | 0 mm | - | - | - |
| 1777149317 | 32.22° C | 57% | 1009.7 hPa | 0 mm | - | - | - |
| 1777143316 | 31.67° C | 59% | 1010.7 hPa | 0 mm | - | - | - |
| 1777141548 | 30.56° C | 61% | 1011 hPa | 0 mm | - | - | - |
| 1777139119 | 30° C | 63% | 1011.5 hPa | 0 mm | - | - | - |
| 1777137326 | 28.89° C | 69% | 1011.7 hPa | 0 mm | - | - | - |
| 1777136748 | 28.33° C | 70% | 1011.8 hPa | 0 mm | - | - | - |
| 1777128933 | 25.56° C | 81% | 1011.4 hPa | 0 mm | - | - | - |
* Rain latest hour (hover to see other rain measurements)
** Current wind speed in m/s (hover to see current wind gust speed)